Time;durP1;ratioP1;P1;durP2;ratioP2;P2;SDS_P1;SDS_P2;PMS_P1;PMS_P2;Temp;Humidity;BMP_temperature;BMP_pressure;BME280_temperature;BME280_humidity;BME280_pressure;Samples;Min_cycle;Max_cycle;Signal;HPM_P1;HPM_P2
2022/05/15 00:01:06;;;;;;;30.10;9.57;;;13.00;99.90;;;;;;5052030;28;20116;-66
2022/05/15 00:03:31;;;;;;;31.70;10.10;;;13.10;99.90;;;;;;5052289;28;20103;-65
2022/05/15 00:06:00;;;;;;;35.70;10.07;;;13.00;99.90;;;;;;5051797;28;20016;-63
2022/05/15 00:08:29;;;;;;;31.27;10.35;;;13.10;99.90;;;;;;5051689;28;20017;-63
2022/05/15 00:10:55;;;;;;;30.85;9.95;;;13.00;99.90;;;;;;5049068;28;20024;-63
2022/05/15 00:13:22;;;;;;;29.58;9.50;;;13.00;99.90;;;;;;5051619;28;20108;-63
2022/05/15 00:15:49;;;;;;;28.63;8.75;;;13.00;99.90;;;;;;5052199;28;20078;-61
2022/05/15 00:18:15;;;;;;;34.05;9.82;;;12.90;99.90;;;;;;5052273;28;20036;-65
2022/05/15 00:20:41;;;;;;;32.80;9.93;;;12.90;99.90;;;;;;5050397;28;20049;-63
2022/05/15 00:23:09;;;;;;;31.40;9.45;;;12.90;99.90;;;;;;5050262;28;20021;-64
2022/05/15 00:25:36;;;;;;;32.00;10.15;;;12.90;99.90;;;;;;5051510;28;20025;-62
2022/05/15 00:28:02;;;;;;;32.05;9.43;;;12.90;99.90;;;;;;5051668;28;20476;-63
2022/05/15 00:30:28;;;;;;;24.50;9.77;;;12.90;99.90;;;;;;5051710;28;20041;-68
2022/05/15 00:32:54;;;;;;;31.90;10.05;;;12.90;99.90;;;;;;5051819;28;20086;-64
2022/05/15 00:35:20;;;;;;;33.40;10.15;;;12.80;99.90;;;;;;5051643;28;20507;-64
2022/05/15 00:37:46;;;;;;;34.03;10.32;;;12.80;99.90;;;;;;5051672;28;20529;-65
2022/05/15 00:40:13;;;;;;;31.25;9.50;;;12.80;99.90;;;;;;5051778;28;20060;-62
2022/05/15 00:42:39;;;;;;;32.55;10.95;;;12.80;99.90;;;;;;5051647;28;20341;-61
2022/05/15 00:45:06;;;;;;;36.30;10.10;;;12.80;99.90;;;;;;5051779;28;20553;-62
2022/05/15 00:47:32;;;;;;;47.38;10.90;;;12.80;99.90;;;;;;5051788;28;20036;-62
2022/05/15 00:49:58;;;;;;;29.42;10.65;;;12.80;99.90;;;;;;5051875;28;20105;-62
2022/05/15 00:52:27;;;;;;;30.75;10.05;;;12.80;99.90;;;;;;5052892;28;20033;-63
2022/05/15 00:55:02;;;;;;;34.95;10.10;;;12.80;99.90;;;;;;5055664;28;20480;-62
2022/05/15 00:57:38;;;;;;;28.92;10.20;;;12.80;99.90;;;;;;5055819;28;20025;-63
2022/05/15 01:00:12;;;;;;;29.23;10.10;;;12.80;99.90;;;;;;5055594;28;20110;-63
2022/05/15 01:02:42;;;;;;;33.33;10.77;;;12.80;99.90;;;;;;5055491;28;20020;-65
2022/05/15 01:05:13;;;;;;;31.23;10.82;;;12.80;99.90;;;;;;5055167;28;20036;-62
2022/05/15 01:07:39;;;;;;;33.28;9.38;;;12.70;99.90;;;;;;5055011;28;20033;-62
2022/05/15 01:10:06;;;;;;;33.10;10.50;;;12.70;99.90;;;;;;5055317;28;20454;-64
2022/05/15 01:12:33;;;;;;;35.00;11.23;;;12.70;99.90;;;;;;5055321;28;20036;-65
2022/05/15 01:15:00;;;;;;;31.40;9.07;;;12.70;99.90;;;;;;5055071;28;20025;-63
2022/05/15 01:17:25;;;;;;;33.97;9.95;;;12.70;99.90;;;;;;5054063;28;20040;-64
2022/05/15 01:20:01;;;;;;;32.05;10.35;;;12.70;99.90;;;;;;5053209;28;20021;-63
2022/05/15 01:22:26;;;;;;;32.67;9.45;;;12.60;99.90;;;;;;5054071;28;20120;-65
2022/05/15 01:24:52;;;;;;;29.52;9.90;;;12.60;99.90;;;;;;5053625;28;20024;-66
2022/05/15 01:27:17;;;;;;;30.25;9.55;;;12.60;99.90;;;;;;5055144;28;20338;-62
2022/05/15 01:29:45;;;;;;;27.60;9.13;;;12.60;99.90;;;;;;5054937;28;20048;-63
2022/05/15 01:32:12;;;;;;;34.72;10.50;;;12.60;99.90;;;;;;5054825;28;20108;-64
2022/05/15 01:34:39;;;;;;;30.35;9.38;;;12.60;99.90;;;;;;5054386;28;20056;-64
2022/05/15 01:37:05;;;;;;;35.05;10.27;;;12.60;99.90;;;;;;5054429;28;20044;-65
2022/05/15 01:39:31;;;;;;;33.85;9.77;;;12.60;99.90;;;;;;5054754;28;20021;-66
2022/05/15 01:41:57;;;;;;;25.58;9.00;;;12.60;99.90;;;;;;5054542;28;20516;-65
2022/05/15 01:44:22;;;;;;;35.90;9.40;;;12.50;99.90;;;;;;5054662;28;20028;-66
2022/05/15 01:46:51;;;;;;;29.85;9.07;;;12.50;99.90;;;;;;5053069;28;20025;-64
2022/05/15 01:49:17;;;;;;;26.52;9.27;;;12.50;99.90;;;;;;5054151;28;20074;-64
2022/05/15 01:51:43;;;;;;;34.38;9.32;;;12.50;99.90;;;;;;5054501;28;20032;-63
2022/05/15 01:54:09;;;;;;;29.92;9.23;;;12.50;99.90;;;;;;5054309;28;20033;-66
2022/05/15 01:56:36;;;;;;;31.42;8.75;;;12.50;99.90;;;;;;5054182;28;20037;-65
2022/05/15 01:59:03;;;;;;;26.80;8.82;;;12.50;99.90;;;;;;5054534;28;20461;-64
2022/05/15 02:01:29;;;;;;;29.80;9.57;;;12.50;99.90;;;;;;5054221;28;20025;-65
2022/05/15 02:03:55;;;;;;;31.42;9.18;;;12.50;99.90;;;;;;5053557;28;20036;-66
2022/05/15 02:06:20;;;;;;;30.35;9.60;;;12.50;99.90;;;;;;5054148;28;20036;-65
2022/05/15 02:08:48;;;;;;;32.13;8.57;;;12.40;99.90;;;;;;5054270;28;20025;-66
2022/05/15 02:11:14;;;;;;;25.27;8.60;;;12.40;99.90;;;;;;5054046;28;20016;-65
2022/05/15 02:13:39;;;;;;;29.92;8.30;;;12.40;99.90;;;;;;5054153;28;20021;-64
2022/05/15 02:16:05;;;;;;;28.75;8.52;;;12.40;99.90;;;;;;5053694;28;20373;-65
2022/05/15 02:18:31;;;;;;;27.25;8.57;;;12.40;99.90;;;;;;5053945;28;20508;-63
2022/05/15 02:20:57;;;;;;;29.23;9.52;;;12.30;99.90;;;;;;5053927;28;20148;-62
2022/05/15 02:23:23;;;;;;;28.55;9.90;;;12.30;99.90;;;;;;5053933;28;20028;-63
2022/05/15 02:25:49;;;;;;;31.77;8.77;;;12.30;99.90;;;;;;5053966;28;20029;-66
2022/05/15 02:28:14;;;;;;;30.20;9.77;;;12.30;99.90;;;;;;5052319;28;20032;-65
2022/05/15 02:30:40;;;;;;;25.10;10.23;;;12.20;99.90;;;;;;5053218;28;20052;-67
2022/05/15 02:33:06;;;;;;;27.40;9.40;;;12.20;99.90;;;;;;5053927;28;20465;-68
2022/05/15 02:35:33;;;;;;;26.10;9.85;;;12.20;99.90;;;;;;5053683;28;20029;-65
2022/05/15 02:37:58;;;;;;;31.35;10.23;;;12.20;99.90;;;;;;5053543;28;20029;-66
2022/05/15 02:40:25;;;;;;;32.05;9.57;;;12.20;99.90;;;;;;5053297;28;20024;-67
2022/05/15 02:42:53;;;;;;;26.08;9.27;;;12.20;99.90;;;;;;5053428;28;20425;-65
2022/05/15 02:45:18;;;;;;;31.13;9.35;;;12.10;99.90;;;;;;5053424;28;20100;-63
2022/05/15 02:47:45;;;;;;;30.25;9.43;;;12.10;99.90;;;;;;5053452;28;20108;-63
2022/05/15 02:52:56;;;;;;;35.25;9.90;;;12.00;99.90;;;;;;5053282;28;20028;-65
2022/05/15 02:55:23;;;;;;;27.40;8.88;;;12.00;99.90;;;;;;5053009;28;20013;-65
2022/05/15 02:57:49;;;;;;;30.58;9.13;;;11.90;99.90;;;;;;5051485;28;20113;-64
2022/05/15 03:00:16;;;;;;;28.90;8.48;;;11.90;99.90;;;;;;5053133;28;20103;-68
2022/05/15 03:02:42;;;;;;;31.42;9.27;;;11.80;99.90;;;;;;5053023;28;20487;-63
2022/05/15 03:05:09;;;;;;;26.52;9.23;;;11.90;99.90;;;;;;5052987;28;20104;-63
2022/05/15 03:07:36;;;;;;;31.15;8.75;;;11.80;99.90;;;;;;5052858;28;20059;-68
2022/05/15 03:10:02;;;;;;;28.08;9.27;;;11.80;99.90;;;;;;5052876;28;20017;-67
2022/05/15 03:12:27;;;;;;;28.70;9.55;;;11.80;99.90;;;;;;5051652;28;20017;-62
2022/05/15 03:14:53;;;;;;;29.13;8.38;;;11.70;99.90;;;;;;5053157;28;20098;-63
2022/05/15 03:17:19;;;;;;;25.85;8.35;;;11.70;99.90;;;;;;5052860;28;20171;-64
2022/05/15 03:19:45;;;;;;;31.13;8.77;;;11.70;99.90;;;;;;5052775;28;20024;-66
2022/05/15 03:22:11;;;;;;;25.65;7.95;;;11.70;99.90;;;;;;5053115;28;20029;-65
2022/05/15 03:24:36;;;;;;;31.02;9.88;;;11.70;99.90;;;;;;5052607;28;20021;-61
2022/05/15 03:27:02;;;;;;;31.27;8.23;;;11.60;99.90;;;;;;5052255;28;20377;-64
2022/05/15 03:29:28;;;;;;;29.92;8.90;;;11.60;99.90;;;;;;5052518;28;20052;-66
2022/05/15 03:31:54;;;;;;;29.30;8.52;;;11.60;99.90;;;;;;5053054;28;20052;-64
2022/05/15 03:34:20;;;;;;;30.15;8.32;;;11.60;99.90;;;;;;5052428;28;20521;-65
2022/05/15 03:36:48;;;;;;;25.15;9.52;;;11.50;99.90;;;;;;5052500;28;20035;-62
2022/05/15 03:39:14;;;;;;;28.58;8.45;;;11.50;99.90;;;;;;5052629;28;20028;-66
2022/05/15 03:41:41;;;;;;;31.33;8.13;;;11.50;99.90;;;;;;5051167;28;20044;-63
2022/05/15 03:44:08;;;;;;;30.88;8.70;;;11.50;99.90;;;;;;5052480;28;20024;-63
2022/05/15 03:46:34;;;;;;;27.85;7.60;;;11.50;99.90;;;;;;5052699;28;20051;-62
2022/05/15 03:48:59;;;;;;;31.58;8.25;;;11.50;99.90;;;;;;5052278;28;20021;-66
2022/05/15 03:51:25;;;;;;;25.40;7.35;;;11.50;99.90;;;;;;5052238;28;20365;-63
2022/05/15 03:53:51;;;;;;;32.63;7.95;;;11.50;99.90;;;;;;5052099;28;20025;-66
2022/05/15 03:56:17;;;;;;;29.42;7.60;;;11.50;99.90;;;;;;5051910;28;20442;-65
2022/05/15 03:58:43;;;;;;;28.73;6.82;;;11.50;99.90;;;;;;5052293;28;20033;-66
2022/05/15 04:01:09;;;;;;;34.28;8.10;;;11.50;99.90;;;;;;5052195;28;20021;-64
2022/05/15 04:03:35;;;;;;;28.92;7.15;;;11.50;99.90;;;;;;5052002;28;20013;-65
2022/05/15 04:06:01;;;;;;;27.25;6.97;;;11.50;99.90;;;;;;5052005;28;20111;-64
2022/05/15 04:08:27;;;;;;;26.67;6.88;;;11.50;99.90;;;;;;5052164;28;20033;-68
2022/05/15 04:10:55;;;;;;;31.85;7.72;;;11.50;99.90;;;;;;5051868;28;20519;-64
2022/05/15 04:13:20;;;;;;;28.00;8.20;;;11.50;99.90;;;;;;5052230;28;20482;-64
2022/05/15 04:15:46;;;;;;;29.88;6.85;;;11.50;99.90;;;;;;5052084;28;20024;-64
2022/05/15 04:18:11;;;;;;;27.30;7.13;;;11.50;99.90;;;;;;5050088;28;20098;-66
2022/05/15 04:20:37;;;;;;;24.95;8.02;;;11.50;99.90;;;;;;5052110;28;20357;-65
2022/05/15 04:23:03;;;;;;;23.55;6.55;;;11.60;99.90;;;;;;5051859;28;20100;-65
2022/05/15 04:25:29;;;;;;;30.70;6.93;;;11.60;99.90;;;;;;5051493;28;20108;-64
2022/05/15 04:27:55;;;;;;;30.42;6.85;;;11.70;99.90;;;;;;5053960;28;20426;-69
2022/05/15 04:30:24;;;;;;;32.65;6.95;;;11.70;99.90;;;;;;5055564;28;20040;-64
2022/05/15 04:32:51;;;;;;;28.05;6.50;;;11.70;99.90;;;;;;5055915;28;20044;-64
2022/05/15 04:35:17;;;;;;;27.42;6.53;;;11.80;99.90;;;;;;5055557;28;20013;-61
2022/05/15 04:37:43;;;;;;;25.92;6.03;;;11.90;99.90;;;;;;5055497;28;20108;-60
2022/05/15 04:40:10;;;;;;;29.52;6.93;;;11.90;99.90;;;;;;5056192;28;20487;-64
2022/05/15 04:42:36;;;;;;;29.50;6.25;;;12.00;99.90;;;;;;5055881;28;20056;-61
2022/05/15 04:45:02;;;;;;;26.88;5.90;;;12.00;99.90;;;;;;5055966;28;20049;-65
2022/05/15 04:47:27;;;;;;;29.92;6.22;;;12.10;99.90;;;;;;5055677;28;20025;-62
2022/05/15 04:49:53;;;;;;;19.80;5.65;;;12.20;99.90;;;;;;5055445;28;20031;-66
2022/05/15 04:52:19;;;;;;;27.50;6.15;;;12.30;99.90;;;;;;5055289;28;20021;-61
2022/05/15 04:54:44;;;;;;;23.48;7.07;;;12.30;99.90;;;;;;5054109;28;20074;-62
2022/05/15 04:57:10;;;;;;;24.33;6.18;;;12.40;99.90;;;;;;5055247;28;20036;-67
2022/05/15 04:59:35;;;;;;;29.15;5.93;;;12.50;99.90;;;;;;5055109;28;20128;-66
2022/05/15 05:02:02;;;;;;;29.23;6.25;;;12.60;99.90;;;;;;5055174;28;20021;-61
2022/05/15 05:04:27;;;;;;;26.95;6.00;;;12.60;99.90;;;;;;5054178;28;20037;-64
2022/05/15 05:06:53;;;;;;;32.22;7.18;;;12.70;99.90;;;;;;5055213;28;20479;-64
2022/05/15 05:09:19;;;;;;;24.58;5.45;;;12.80;99.90;;;;;;5055486;28;20028;-64
2022/05/15 05:11:44;;;;;;;24.15;6.53;;;12.90;99.90;;;;;;5055211;28;20496;-65
2022/05/15 05:14:10;;;;;;;23.77;6.28;;;13.00;99.90;;;;;;5055205;28;20368;-63
2022/05/15 05:16:36;;;;;;;22.42;5.30;;;13.10;99.90;;;;;;5054986;28;20105;-61
2022/05/15 05:19:03;;;;;;;23.48;5.28;;;13.20;99.90;;;;;;5055023;28;20025;-64
2022/05/15 05:21:29;;;;;;;23.05;5.45;;;13.40;99.90;;;;;;5054765;28;20537;-64
2022/05/15 05:23:54;;;;;;;27.23;5.68;;;13.50;99.90;;;;;;5053794;28;20064;-61
2022/05/15 05:26:20;;;;;;;24.10;5.47;;;13.60;99.90;;;;;;5055101;28;20041;-64
2022/05/15 05:28:46;;;;;;;22.52;5.18;;;13.70;99.90;;;;;;5055278;28;20029;-63
2022/05/15 05:31:12;;;;;;;27.30;5.70;;;13.80;99.90;;;;;;5054699;28;20072;-61
2022/05/15 05:33:38;;;;;;;32.15;6.53;;;13.90;99.90;;;;;;5054874;28;20044;-64
2022/05/15 05:36:04;;;;;;;24.52;4.60;;;14.00;99.90;;;;;;5054683;28;20044;-64
2022/05/15 05:38:30;;;;;;;19.77;6.47;;;14.10;99.90;;;;;;5052593;28;20032;-65
2022/05/15 05:40:56;;;;;;;26.25;5.63;;;14.30;99.90;;;;;;5054485;28;20040;-65
2022/05/15 05:43:21;;;;;;;18.05;5.13;;;14.40;99.90;;;;;;5054568;28;20017;-63
2022/05/15 05:45:47;;;;;;;25.58;5.15;;;14.60;99.90;;;;;;5054599;28;20013;-66
2022/05/15 05:48:12;;;;;;;22.52;4.97;;;14.70;99.90;;;;;;5054444;28;20032;-63
2022/05/15 05:50:38;;;;;;;25.02;5.32;;;14.90;99.90;;;;;;5054417;28;20021;-64
2022/05/15 05:53:04;;;;;;;24.02;5.43;;;15.10;99.90;;;;;;5054373;28;20027;-62
2022/05/15 05:55:30;;;;;;;19.05;4.65;;;15.40;99.90;;;;;;5054457;28;20057;-61
2022/05/15 05:57:57;;;;;;;24.35;5.50;;;15.90;99.90;;;;;;5054358;28;20065;-62
2022/05/15 06:00:30;;;;;;;26.38;5.28;;;16.50;99.90;;;;;;5054436;28;20021;-65
2022/05/15 06:05:41;;;;;;;24.80;5.68;;;17.80;99.90;;;;;;5054588;28;20075;-66
2022/05/15 06:08:07;;;;;;;19.92;4.25;;;18.50;99.90;;;;;;5054524;28;20025;-62
2022/05/15 06:10:33;;;;;;;16.13;4.35;;;19.20;99.90;;;;;;5052874;28;20068;-66
2022/05/15 06:12:58;;;;;;;17.85;4.10;;;19.80;99.90;;;;;;5052284;28;20029;-63
2022/05/15 06:15:24;;;;;;;17.20;4.63;;;20.40;99.90;;;;;;5053753;28;20095;-66
2022/05/15 06:17:49;;;;;;;23.85;5.20;;;20.90;99.90;;;;;;5053571;28;20041;-64
2022/05/15 06:20:16;;;;;;;20.48;4.80;;;21.40;99.90;;;;;;5052894;28;20028;-67
2022/05/15 06:22:42;;;;;;;22.33;5.47;;;21.80;99.90;;;;;;5053944;28;20024;-63
2022/05/15 06:25:08;;;;;;;19.20;4.30;;;22.40;99.90;;;;;;5053878;28;20024;-65
2022/05/15 06:27:34;;;;;;;21.23;4.68;;;22.90;98.80;;;;;;5054304;28;20086;-66
2022/05/15 06:29:59;;;;;;;20.00;5.30;;;23.40;97.70;;;;;;5053605;28;20049;-62
2022/05/15 06:32:26;;;;;;;17.63;4.80;;;23.80;96.90;;;;;;5053996;28;20029;-66
2022/05/15 06:34:52;;;;;;;20.13;5.15;;;24.30;95.70;;;;;;5053992;28;20476;-65
2022/05/15 06:37:17;;;;;;;20.35;4.65;;;24.70;95.20;;;;;;5053860;28;20037;-62
2022/05/15 06:39:43;;;;;;;20.10;4.85;;;25.20;94.30;;;;;;5053663;28;20052;-65
2022/05/15 06:42:09;;;;;;;18.75;4.90;;;25.80;93.10;;;;;;5053389;28;20059;-64
2022/05/15 06:44:34;;;;;;;18.80;4.60;;;26.10;92.50;;;;;;5053614;28;20060;-65
2022/05/15 06:47:00;;;;;;;18.50;5.47;;;26.50;91.90;;;;;;5053245;28;20061;-65
2022/05/15 06:49:25;;;;;;;20.98;5.05;;;26.90;91.10;;;;;;5053792;28;20021;-65
2022/05/15 06:51:51;;;;;;;17.95;5.30;;;27.20;89.20;;;;;;5052911;28;20029;-66
2022/05/15 06:54:17;;;;;;;17.67;5.05;;;27.40;88.30;;;;;;5051957;28;20021;-64
2022/05/15 06:59:27;;;;;;;20.08;5.00;;;27.70;85.60;;;;;;5053436;28;20094;-61
2022/05/15 07:01:52;;;;;;;19.75;5.03;;;28.00;84.40;;;;;;5053168;28;20434;-63
2022/05/15 07:04:18;;;;;;;16.65;4.55;;;28.10;82.60;;;;;;5053206;28;20028;-63
2022/05/15 07:06:43;;;;;;;18.52;4.75;;;28.10;82.10;;;;;;5053185;28;20048;-62
2022/05/15 07:09:09;;;;;;;20.92;4.57;;;28.20;81.40;;;;;;5052979;28;20071;-65
2022/05/15 07:11:34;;;;;;;17.52;5.20;;;28.20;80.80;;;;;;5053212;28;20036;-66
2022/05/15 07:14:00;;;;;;;13.38;4.95;;;28.10;80.30;;;;;;5051986;28;20029;-64
2022/05/15 07:16:25;;;;;;;17.23;5.32;;;27.90;80.80;;;;;;5051705;28;20025;-62
2022/05/15 07:18:51;;;;;;;21.38;5.38;;;27.80;80.60;;;;;;5052591;28;20029;-62
2022/05/15 07:21:17;;;;;;;18.02;5.18;;;27.50;80.70;;;;;;5052593;28;20060;-63
2022/05/15 07:23:42;;;;;;;21.50;5.30;;;27.20;81.60;;;;;;5052725;28;20457;-64
2022/05/15 07:26:08;;;;;;;20.38;4.97;;;26.90;81.50;;;;;;5052594;28;20495;-66
2022/05/15 07:28:34;;;;;;;20.40;5.22;;;26.60;82.40;;;;;;5052641;28;20515;-64
2022/05/15 07:30:59;;;;;;;20.75;5.10;;;26.20;83.30;;;;;;5051737;28;20466;-64
2022/05/15 07:33:26;;;;;;;20.38;4.97;;;26.00;83.70;;;;;;5051452;28;20021;-66
2022/05/15 07:35:54;;;;;;;16.45;5.03;;;25.60;84.60;;;;;;5052899;28;20021;-65
2022/05/15 07:38:21;;;;;;;22.60;6.10;;;25.30;85.60;;;;;;5052022;28;20036;-64
2022/05/15 07:40:47;;;;;;;20.58;5.93;;;25.00;86.40;;;;;;5052260;28;20064;-64
2022/05/15 07:43:13;;;;;;;19.30;5.32;;;24.70;86.80;;;;;;5051145;28;20056;-63
2022/05/15 07:45:39;;;;;;;19.95;5.80;;;24.50;88.00;;;;;;5052116;28;20036;-64
2022/05/15 07:48:06;;;;;;;22.05;5.82;;;24.30;88.50;;;;;;5052611;28;20021;-63
2022/05/15 07:50:33;;;;;;;20.50;5.97;;;24.10;88.60;;;;;;5052307;28;20075;-64
2022/05/15 07:52:59;;;;;;;18.70;5.72;;;24.00;90.00;;;;;;5052267;28;20468;-62
2022/05/15 07:55:24;;;;;;;21.00;5.20;;;24.10;89.30;;;;;;5052391;28;20021;-65
2022/05/15 07:57:50;;;;;;;20.80;7.03;;;24.30;89.50;;;;;;5052134;28;20037;-65
2022/05/15 08:00:16;;;;;;;18.88;5.78;;;24.50;88.50;;;;;;5052670;28;20021;-63
2022/05/15 08:02:42;;;;;;;19.67;7.20;;;24.80;88.80;;;;;;5051861;28;20116;-65
2022/05/15 08:08:00;;;;;;;19.85;5.55;;;25.80;86.20;;;;;;5052406;28;20036;-62
2022/05/15 08:10:32;;;;;;;19.65;5.50;;;26.50;84.70;;;;;;5052243;28;20416;-64
2022/05/15 08:12:58;;;;;;;18.48;5.57;;;27.20;83.80;;;;;;5052356;28;20029;-63
2022/05/15 08:15:23;;;;;;;20.25;6.10;;;28.10;80.90;;;;;;5052223;28;20028;-67
2022/05/15 08:17:49;;;;;;;18.48;5.35;;;28.80;78.70;;;;;;5050114;28;20037;-65
2022/05/15 08:25:45;;;;;;;19.05;6.43;;;30.80;73.70;;;;;;5052110;28;20110;-67
2022/05/15 08:28:11;;;;;;;22.67;5.63;;;31.40;73.10;;;;;;5051061;28;20639;-64
2022/05/15 08:30:37;;;;;;;22.13;6.53;;;32.10;71.20;;;;;;5050877;28;20045;-64
2022/05/15 08:33:03;;;;;;;20.00;5.78;;;32.70;69.60;;;;;;5052043;28;20127;-66
2022/05/15 08:35:29;;;;;;;17.95;5.72;;;33.30;67.80;;;;;;5051916;28;20013;-66
2022/05/15 08:37:55;;;;;;;18.33;5.60;;;34.00;66.70;;;;;;5051670;28;20415;-67
2022/05/15 08:40:25;;;;;;;23.70;6.65;;;34.40;64.00;;;;;;5051972;28;20044;-67
2022/05/15 08:42:56;;;;;;;19.65;5.22;;;34.70;63.30;;;;;;5052038;28;20115;-67
2022/05/15 08:45:29;;;;;;;18.48;5.78;;;34.80;61.60;;;;;;5051618;28;20429;-66
2022/05/15 08:48:01;;;;;;;17.40;6.07;;;34.60;61.40;;;;;;5051402;28;20056;-68
2022/05/15 08:50:29;;;;;;;21.63;6.43;;;34.50;61.10;;;;;;5052127;28;20025;-63
2022/05/15 08:53:00;;;;;;;16.67;5.65;;;34.60;61.70;;;;;;5051991;28;20428;-65
2022/05/15 08:55:32;;;;;;;18.67;5.93;;;34.90;60.30;;;;;;5051929;28;20040;-66
2022/05/15 08:58:03;;;;;;;17.80;5.53;;;34.80;59.90;;;;;;5052095;28;20045;-66
2022/05/15 09:00:32;;;;;;;17.33;6.18;;;34.50;60.20;;;;;;5051326;28;20065;-64
2022/05/15 09:03:13;;;;;;;16.20;5.70;;;34.00;60.20;;;;;;5051787;28;20084;-68
2022/05/15 09:05:46;;;;;;;14.77;5.10;;;33.70;60.60;;;;;;5051622;28;20013;-66
2022/05/15 09:08:58;;;;;;;18.20;5.63;;;33.60;60.70;;;;;;5051773;28;20242;-66
2022/05/15 09:11:43;;;;;;;;;;;33.40;60.70;;;;;;5036529;28;20021;-65
2022/05/15 09:14:20;;;;;;;14.77;5.65;;;33.50;60.90;;;;;;5053424;28;19907;-62
2022/05/15 09:17:11;;;;;;;19.25;6.10;;;33.60;60.60;;;;;;5054914;28;20033;-64
2022/05/15 09:19:37;;;;;;;16.65;5.78;;;33.80;60.50;;;;;;5054893;28;20024;-64
2022/05/15 09:22:05;;;;;;;17.85;6.00;;;34.00;60.10;;;;;;5055392;28;20025;-65
2022/05/15 09:24:51;;;;;;;17.38;5.72;;;33.90;59.30;;;;;;5054075;28;20353;-64
2022/05/15 09:27:21;;;;;;;17.48;5.50;;;33.90;59.30;;;;;;5054886;28;20457;-64
2022/05/15 09:30:06;;;;;;;17.15;5.13;;;34.00;59.50;;;;;;5054687;28;20111;-64
2022/05/15 09:32:38;;;;;;;15.38;5.25;;;34.60;58.80;;;;;;5054703;28;20036;-67
2022/05/15 09:35:09;;;;;;;22.85;5.82;;;34.90;58.10;;;;;;5054387;28;20460;-68
2022/05/15 09:40:24;;;;;;;19.15;5.00;;;35.40;57.40;;;;;;5054699;28;20087;-62
2022/05/15 09:45:46;;;;;;;18.65;5.32;;;35.60;56.10;;;;;;5054578;28;20028;-63
2022/05/15 09:48:12;;;;;;;14.35;5.28;;;35.70;56.40;;;;;;5054868;28;20410;-63
2022/05/15 09:50:47;;;;;;;16.85;5.57;;;35.90;55.80;;;;;;5054823;28;20075;-63
2022/05/15 09:53:37;;;;;;;18.13;5.20;;;36.10;55.50;;;;;;5054813;28;20021;-62
2022/05/15 09:56:10;;;;;;;16.65;4.90;;;36.20;55.00;;;;;;5053203;28;20051;-63
2022/05/15 09:58:55;;;;;;;16.55;4.65;;;36.30;55.00;;;;;;5054312;28;20044;-63
2022/05/15 10:01:35;;;;;;;17.45;4.80;;;36.50;54.20;;;;;;5054217;28;20404;-65
2022/05/15 10:04:04;;;;;;;15.25;5.00;;;36.50;54.10;;;;;;5054193;28;20306;-64
2022/05/15 10:06:37;;;;;;;18.10;5.55;;;36.40;54.10;;;;;;5054546;28;20025;-63
2022/05/15 10:09:07;;;;;;;16.27;4.72;;;36.20;53.80;;;;;;5054122;28;20024;-63
2022/05/15 10:11:35;;;;;;;15.57;5.05;;;36.30;54.00;;;;;;5054027;28;20481;-62
2022/05/15 10:14:02;;;;;;;14.85;5.07;;;36.60;53.40;;;;;;5054177;28;20104;-64
2022/05/15 10:16:33;;;;;;;14.73;4.70;;;36.60;52.70;;;;;;5054487;28;20167;-62
2022/05/15 10:19:01;;;;;;;20.33;5.05;;;36.60;52.60;;;;;;5054228;28;20071;-65
2022/05/15 10:21:48;;;;;;;14.07;4.53;;;36.50;52.40;;;;;;5054054;28;20472;-65
2022/05/15 10:24:37;;;;;;;16.50;5.53;;;36.70;52.40;;;;;;5054159;28;20029;-66
2022/05/15 10:27:10;;;;;;;19.38;5.22;;;36.80;52.30;;;;;;5053877;28;20028;-63
2022/05/15 10:29:57;;;;;;;17.88;5.20;;;36.80;51.60;;;;;;5053538;28;20480;-66
2022/05/15 10:32:26;;;;;;;16.00;4.70;;;36.70;51.60;;;;;;5054201;28;20032;-64
2022/05/15 10:34:53;;;;;;;16.70;5.63;;;36.70;51.70;;;;;;5053441;28;20025;-65
2022/05/15 10:37:42;;;;;;;14.90;4.70;;;36.70;51.60;;;;;;5053821;28;20043;-64
2022/05/15 10:40:30;;;;;;;17.63;4.88;;;36.70;51.90;;;;;;5053453;28;20021;-62
2022/05/15 10:43:38;;;;;;;15.35;4.65;;;36.60;51.50;;;;;;5053641;28;20032;-61
2022/05/15 10:46:19;;;;;;;14.63;5.10;;;36.50;51.50;;;;;;5053673;28;20063;-65
2022/05/15 10:49:21;;;;;;;15.73;4.78;;;36.50;50.90;;;;;;5053540;28;20032;-67
2022/05/15 10:51:52;;;;;;;16.08;4.32;;;36.60;51.20;;;;;;5053836;28;20017;-65
2022/05/15 10:57:30;;;;;;;14.00;4.28;;;36.00;51.60;;;;;;5052759;28;20094;-64
2022/05/15 11:00:01;;;;;;;13.48;4.03;;;36.10;51.50;;;;;;5052990;28;20373;-63
2022/05/15 11:02:56;;;;;;;16.27;4.50;;;36.30;51.20;;;;;;5053159;28;20021;-63
2022/05/15 11:05:37;;;;;;;16.77;4.70;;;36.70;50.90;;;;;;5053088;28;20017;-63
2022/05/15 11:08:31;;;;;;;15.50;4.95;;;37.20;50.30;;;;;;5052918;28;20102;-63
2022/05/15 11:11:07;;;;;;;20.30;4.68;;;37.30;50.10;;;;;;5053151;28;20021;-64
2022/05/15 11:13:53;;;;;;;14.00;4.43;;;37.50;49.30;;;;;;5053231;28;20043;-63
2022/05/15 11:16:44;;;;;;;14.43;4.75;;;37.90;49.30;;;;;;5053277;28;20037;-65
2022/05/15 11:19:28;;;;;;;13.98;3.90;;;38.40;47.00;;;;;;5053257;28;20051;-63
2022/05/15 11:22:09;;;;;;;16.13;4.43;;;38.60;47.10;;;;;;5052642;28;20465;-62
2022/05/15 11:24:54;;;;;;;;;;;38.60;47.10;;;;;;5053069;28;20037;-62
2022/05/15 11:27:24;;;;;;;17.50;4.07;;;38.40;47.30;;;;;;5052929;28;20368;-62
2022/05/15 11:29:52;;;;;;;11.40;3.83;;;38.70;47.70;;;;;;5052466;28;20139;-62
2022/05/15 11:32:38;;;;;;;12.75;3.90;;;39.00;46.70;;;;;;5051174;28;20548;-62
2022/05/15 11:35:19;;;;;;;17.13;4.28;;;39.00;46.60;;;;;;5052674;28;20025;-63
2022/05/15 11:38:06;;;;;;;13.88;4.45;;;39.20;46.20;;;;;;5051524;28;20072;-62
2022/05/15 11:40:32;;;;;;;14.93;4.32;;;39.00;46.30;;;;;;5052646;28;20025;-62
2022/05/15 11:42:58;;;;;;;16.65;4.60;;;39.00;46.40;;;;;;5052424;28;20495;-62
2022/05/15 11:45:36;;;;;;;13.85;3.85;;;39.20;46.00;;;;;;5052503;28;20365;-63
2022/05/15 11:48:16;;;;;;;16.65;4.45;;;39.30;45.80;;;;;;5052731;28;20085;-62
2022/05/15 11:50:56;;;;;;;16.27;4.77;;;39.20;45.30;;;;;;5052521;28;20104;-63
2022/05/15 11:53:46;;;;;;;12.57;3.90;;;39.00;45.60;;;;;;5052024;28;20047;-62
2022/05/15 11:56:37;;;;;;;16.30;4.50;;;39.20;45.10;;;;;;5052396;28;20112;-63
2022/05/15 11:59:04;;;;;;;;;;;38.70;45.10;;;;;;5049419;28;20489;-62
2022/05/15 12:01:37;;;;;;;13.65;4.03;;;38.60;45.60;;;;;;5052262;28;19905;-62
2022/05/15 12:04:39;;;;;;;13.18;3.67;;;38.40;45.10;;;;;;5052337;28;20074;-62
2022/05/15 12:07:08;;;;;;;14.02;4.22;;;38.30;45.50;;;;;;5028260;28;20120;-62
2022/05/15 12:09:39;;;;;;;14.18;3.88;;;38.10;45.70;;;;;;5047991;28;20029;-64
2022/05/15 12:12:23;;;;;;;14.73;4.03;;;38.20;45.50;;;;;;5051922;28;20031;-62
2022/05/15 12:15:24;;;;;;;10.30;3.50;;;38.40;45.20;;;;;;5052420;28;20029;-61
2022/05/15 12:17:50;;;;;;;14.27;4.20;;;38.40;44.90;;;;;;5052571;28;20036;-62
2022/05/15 12:20:21;;;;;;;12.88;3.40;;;38.60;45.10;;;;;;5052051;28;20025;-66
2022/05/15 12:22:56;;;;;;;14.20;3.85;;;38.90;44.80;;;;;;5052098;28;20082;-62
2022/05/15 12:25:31;;;;;;;13.30;3.80;;;39.00;44.60;;;;;;5052390;28;20032;-62
2022/05/15 12:28:50;;;;;;;11.23;3.50;;;39.10;44.50;;;;;;5052206;28;20032;-63
2022/05/15 12:30:47;;;;;;;13.02;3.65;;;38.80;44.50;;;;;;5051780;28;20056;-63
2022/05/15 12:33:13;;;;;;;15.90;3.72;;;38.40;44.60;;;;;;5052280;28;20025;-63
2022/05/15 12:35:42;;;;;;;15.07;4.03;;;37.90;44.90;;;;;;5052157;28;20052;-64
2022/05/15 12:38:15;;;;;;;11.60;3.45;;;37.30;45.50;;;;;;5051767;28;20358;-63
2022/05/15 12:40:55;;;;;;;17.02;4.25;;;36.70;45.80;;;;;;5051862;28;20022;-65
2022/05/15 12:43:27;;;;;;;15.57;3.65;;;36.30;46.00;;;;;;5052053;28;20025;-62
2022/05/15 12:45:54;;;;;;;15.70;4.20;;;35.70;46.30;;;;;;5052109;28;20159;-63
2022/05/15 12:48:21;;;;;;;16.05;4.03;;;35.10;47.00;;;;;;5051555;28;20017;-65
2022/05/15 12:51:06;;;;;;;15.18;3.80;;;34.60;46.90;;;;;;5055811;28;20025;-65
2022/05/15 12:53:51;;;;;;;16.35;3.90;;;34.00;47.30;;;;;;5055717;28;20492;-62
2022/05/15 12:56:29;;;;;;;11.20;3.38;;;33.40;48.00;;;;;;5055538;28;20118;-65
2022/05/15 12:59:06;;;;;;;10.10;2.90;;;32.90;48.50;;;;;;5054378;28;20039;-62
2022/05/15 13:01:32;;;;;;;9.50;3.47;;;32.50;48.90;;;;;;5055466;28;20028;-63
2022/05/15 13:04:02;;;;;;;13.00;3.25;;;32.00;49.20;;;;;;5055261;28;20104;-62
2022/05/15 13:06:34;;;;;;;14.00;4.03;;;31.60;49.50;;;;;;5055371;28;20385;-62
2022/05/15 13:09:18;;;;;;;13.48;4.05;;;31.20;50.30;;;;;;5055704;28;20464;-63
2022/05/15 13:11:50;;;;;;;13.82;3.40;;;30.90;50.60;;;;;;5055161;28;20044;-62
2022/05/15 13:14:32;;;;;;;9.75;3.95;;;30.70;50.80;;;;;;5055302;28;20032;-62
2022/05/15 13:16:58;;;;;;;11.30;3.60;;;30.50;50.50;;;;;;5055244;28;20379;-62